Time;durP1;ratioP1;P1;durP2;ratioP2;P2;SDS_P1;SDS_P2;PMS_P1;PMS_P2;Temp;Humidity;BMP_temperature;BMP_pressure;BME280_temperature;BME280_humidity;BME280_pressure;Samples;Min_cycle;Max_cycle;Signal;HPM_P1;HPM_P2
2022/10/02 00:02:25;;;;;;;;;3.00;2.00;;;;;13.93;80.66;101326.78;4595084;28;2741984;-70
2022/10/02 00:05:14;;;;;;;;;3.00;2.00;;;;;14.01;80.22;101337.50;4591514;28;2737833;-72
2022/10/02 00:07:41;;;;;;;;;5.00;4.00;;;;;14.01;80.27;101340.13;4593384;28;2748194;-74
2022/10/02 00:10:15;;;;;;;;;5.50;4.00;;;;;14.02;79.78;101341.91;4593601;28;2754491;-75
2022/10/02 00:12:44;;;;;;;;;6.00;5.00;;;;;13.96;79.85;101331.22;4593682;28;2746535;-74
2022/10/02 00:15:17;;;;;;;;;6.00;6.00;;;;;13.97;79.64;101333.00;4592032;28;2740950;-73
2022/10/02 00:17:47;;;;;;;;;14.00;12.00;;;;;14.03;79.37;101353.31;4595541;28;2798211;-73
2022/10/02 00:20:21;;;;;;;;;4.20;4.00;;;;;14.06;79.49;101350.78;4615020;28;2751306;-75
2022/10/02 00:22:52;;;;;;;;;3.00;3.00;;;;;14.08;78.99;101347.31;4594867;28;2747217;-74
2022/10/02 00:25:34;;;;;;;;;5.00;3.00;;;;;14.11;79.38;101342.16;4615820;28;2737770;-74
2022/10/02 00:28:29;;;;;;;;;8.00;7.00;;;;;14.07;80.19;101348.19;4619873;28;2727385;-75
2022/10/02 00:31:14;;;;;;;;;7.40;6.80;;;;;14.03;80.35;101346.31;4613152;28;2739181;-74
2022/10/02 00:34:20;;;;;;;;;8.00;6.40;;;;;13.93;79.92;101331.16;4637755;28;2737782;-75
2022/10/02 00:37:12;;;;;;;;;6.40;5.80;;;;;14.04;80.08;101349.84;4637677;28;2732577;-69
2022/10/02 00:39:57;;;;;;;;;5.00;4.00;;;;;13.97;80.63;101348.78;4617133;28;2739905;-74
2022/10/02 00:42:41;;;;;;;;;4.50;4.50;;;;;13.97;79.93;101346.16;4596898;28;2745113;-74
2022/10/02 00:45:22;;;;;;;;;6.00;6.00;;;;;13.92;80.64;101345.13;4594164;28;2743049;-73
2022/10/02 00:47:53;;;;;;;;;5.00;4.50;;;;;13.92;81.06;101345.13;4595102;28;2738085;-69
2022/10/02 00:50:35;;;;;;;;;5.20;4.40;;;;;13.89;80.65;101345.94;4615212;28;2744035;-73
2022/10/02 00:53:12;;;;;;;;;4.50;4.00;;;;;13.89;80.03;101345.03;4594823;28;2741996;-71
2022/10/02 00:56:10;;;;;;;;;6.00;4.00;;;;;13.77;79.86;101329.81;4596447;28;2751355;-71
2022/10/02 00:58:41;;;;;;;;;4.00;4.00;;;;;13.85;79.68;101349.31;4596434;28;2747498;-74
2022/10/02 01:01:14;;;;;;;;;2.00;2.00;;;;;13.74;79.77;101327.09;4596982;28;2748242;-70
2022/10/02 01:03:43;;;;;;;;;1.00;1.00;;;;;13.71;79.49;101332.25;4597602;28;2733608;-74
2022/10/02 01:06:10;;;;;;;;;1.00;1.00;;;;;13.70;80.07;101333.09;4596488;28;2727440;-69
2022/10/02 01:08:36;;;;;;;;;1.50;1.50;;;;;13.66;80.43;101339.97;4597279;28;2730491;-74
2022/10/02 01:11:03;;;;;;;;;1.00;1.00;;;;;13.58;80.89;101311.72;4598387;28;2722186;-73
2022/10/02 01:13:30;;;;;;;;;1.00;1.00;;;;;13.66;81.52;101329.47;4596301;28;2731527;-74
2022/10/02 01:15:59;;;;;;;;;2.00;2.00;;;;;13.62;81.73;101331.97;4597597;28;2741956;-68
2022/10/02 01:18:26;;;;;;;;;2.00;2.00;;;;;13.69;80.89;101340.09;4596935;28;2741299;-73
2022/10/02 01:21:17;;;;;;;;;2.00;2.00;;;;;13.50;81.13;101316.75;4598541;28;2733646;-74
2022/10/02 01:23:48;;;;;;;;;2.00;2.00;;;;;13.56;81.28;101348.44;4579701;28;2746118;-75
2022/10/02 01:26:14;;;;;;;;;2.50;2.00;;;;;13.24;80.62;101311.53;4596026;28;2741952;-74
2022/10/02 01:28:41;;;;;;;;;2.00;2.00;;;;;13.24;80.83;101324.66;4595549;28;2728760;-74
2022/10/02 01:31:11;;;;;;;;;1.00;1.00;;;;;13.27;81.14;101336.97;4618642;28;2725306;-74
2022/10/02 01:33:42;;;;;;;;;2.00;2.00;;;;;12.99;81.53;101285.38;4619438;28;2750312;-74
2022/10/02 01:36:12;;;;;;;;;1.00;1.00;;;;;13.23;81.86;101328.16;4588798;28;2724261;-74
2022/10/02 01:38:39;;;;;;;;;2.00;1.50;;;;;13.22;82.01;101321.09;4586295;28;2731552;-75
2022/10/02 01:41:08;;;;;;;;;2.00;2.00;;;;;13.12;82.81;101301.56;4594606;28;2741943;-74
2022/10/02 01:43:44;;;;;;;;;3.00;2.00;;;;;13.19;82.39;101302.66;4596698;28;2750317;-74
2022/10/02 01:46:33;;;;;;;;;2.00;2.00;;;;;13.24;82.95;101306.28;4594373;28;2753402;-71
2022/10/02 01:49:17;;;;;;;;;2.00;2.00;;;;;13.35;83.43;101317.19;4596323;28;2742110;-73
2022/10/02 01:51:48;;;;;;;;;3.50;2.00;;;;;13.23;83.47;101295.75;4598108;28;2741964;-75
2022/10/02 01:54:26;;;;;;;;;2.00;2.00;;;;;13.24;83.26;101300.16;4594463;28;2744058;-68
2022/10/02 01:57:16;;;;;;;;;3.00;1.00;;;;;13.18;83.10;101300.88;4598113;28;2725310;-70
2022/10/02 01:59:41;;;;;;;;;1.00;1.00;;;;;13.29;82.85;101309.06;4597600;28;2731551;-68
2022/10/02 02:02:36;;;;;;;;;2.00;2.00;;;;;13.26;82.55;101296.75;4610041;28;2733607;-68
2022/10/02 02:05:09;;;;;;;;;2.00;2.00;;;;;13.32;82.39;101302.22;4612845;28;2722491;-75
2022/10/02 02:07:56;;;;;;;;;3.50;3.00;;;;;13.19;82.16;101279.03;4596275;28;2754802;-73
2022/10/02 02:10:26;;;;;;;;;1.00;1.00;;;;;13.40;82.17;101306.81;4592420;28;2735730;-74
2022/10/02 02:13:01;;;;;;;;;1.00;0.00;;;;;13.41;81.89;101305.94;4598795;28;2725303;-71
2022/10/02 02:16:02;;;;;;;;;1.00;1.00;;;;;13.41;81.17;101304.25;4593588;28;2733682;-73
2022/10/02 02:18:39;;;;;;;;;1.00;1.00;;;;;13.32;80.54;101296.06;4596107;28;2720133;-73
2022/10/02 02:21:23;;;;;;;;;1.00;1.00;;;;;13.27;81.03;101288.03;4597237;28;2722264;-72
2022/10/02 02:23:50;;;;;;;;;0.00;0.00;;;;;13.30;81.13;101288.16;4597639;28;2725311;-74
2022/10/02 02:26:18;;;;;;;;;1.00;1.00;;;;;13.32;81.50;101296.06;4598589;28;2728467;-70
2022/10/02 02:28:51;;;;;;;;;1.00;1.00;;;;;13.37;81.29;101301.44;4597790;28;2729456;-74
2022/10/02 02:31:22;;;;;;;;;1.00;1.00;;;;;13.36;81.14;101297.94;4598052;28;2727378;-74
2022/10/02 02:33:57;;;;;;;;;1.00;1.00;;;;;13.18;80.93;101274.63;4590630;28;2720407;-74
2022/10/02 02:36:28;;;;;;;;;0.50;0.50;;;;;13.23;80.89;101288.78;4597814;28;2724241;-69
2022/10/02 02:39:09;;;;;;;;;1.00;1.00;;;;;13.08;81.59;101278.69;4598100;28;2725310;-73
2022/10/02 02:41:49;;;;;;;;;1.00;0.00;;;;;13.21;82.29;101300.97;4598088;28;2729465;-75
2022/10/02 02:44:27;;;;;;;;;1.00;1.00;;;;;13.07;82.26;101276.00;4597954;28;2725309;-74
2022/10/02 02:47:16;;;;;;;;;1.00;1.00;;;;;13.24;82.04;101303.66;4590301;28;2725297;-75
2022/10/02 02:49:48;;;;;;;;;1.00;1.00;;;;;13.19;81.97;101299.13;4590101;28;2725674;-74
2022/10/02 02:52:22;;;;;;;;;1.00;1.00;;;;;13.06;81.66;101285.63;4590275;28;2725320;-74
2022/10/02 02:54:55;;;;;;;;;0.00;0.00;;;;;13.24;81.24;101308.91;4596930;28;2725302;-74
2022/10/02 02:57:31;;;;;;;;;1.00;1.00;;;;;13.28;81.06;101312.53;4598891;28;2730501;-75
2022/10/02 02:59:59;;;;;;;;;1.00;0.00;;;;;13.08;81.33;101276.06;4597856;28;2727417;-74
2022/10/02 03:02:24;;;;;;;;;2.00;1.00;;;;;13.25;81.69;101305.47;4598431;28;2725921;-74
2022/10/02 03:04:50;;;;;;;;;1.00;1.00;;;;;13.15;82.11;101285.03;4609278;28;2729418;-74
2022/10/02 03:07:17;;;;;;;;;2.50;1.00;;;;;13.16;82.43;101285.94;4627099;28;2737793;-74
2022/10/02 03:10:04;;;;;;;;;1.00;1.00;;;;;13.22;82.26;101304.47;4617254;28;2723178;-73
2022/10/02 03:13:20;;;;;;;;;2.00;1.00;;;;;13.18;82.52;101303.47;4620329;28;2719053;-74
2022/10/02 03:15:54;;;;;;;;;3.00;2.00;;;;;13.19;82.72;101301.75;4560001;28;2739881;-68
2022/10/02 03:19:05;;;;;;;;;1.00;1.00;;;;;13.12;82.76;101311.16;4592401;28;2739889;-69
2022/10/02 03:21:44;;;;;;;;;1.00;1.00;;;;;12.91;81.79;101307.03;4575385;28;2724364;-71
2022/10/02 03:24:22;;;;;;;;;3.50;1.50;;;;;12.95;82.34;101321.09;4594438;28;2739900;-73
2022/10/02 03:27:08;;;;;;;;;1.00;1.00;;;;;12.94;82.82;101319.34;4593910;28;2727433;-74
2022/10/02 03:29:42;;;;;;;;;2.50;1.00;;;;;12.84;82.92;101302.41;4598335;28;2724268;-74
2022/10/02 03:32:10;;;;;;;;;1.00;1.00;;;;;12.86;82.80;101303.34;4598530;28;2718039;-73
2022/10/02 03:34:37;;;;;;;;;1.00;1.00;;;;;12.97;82.36;101315.91;4592459;28;2735679;-74
2022/10/02 03:37:03;;;;;;;;;1.50;1.50;;;;;12.91;81.97;101312.25;4596639;28;2735738;-75
2022/10/02 03:39:29;;;;;;;;;2.00;1.00;;;;;12.94;81.70;101312.34;4591022;28;2723254;-72
2022/10/02 03:41:55;;;;;;;;;1.00;1.00;;;;;12.94;81.15;101301.84;4604105;28;2722492;-73
2022/10/02 03:44:21;;;;;;;;;1.00;1.00;;;;;12.85;81.75;101301.56;4622256;28;2720114;-75
2022/10/02 03:46:47;;;;;;;;;1.00;1.00;;;;;12.92;81.77;101321.91;4611896;28;2733610;-73
2022/10/02 03:49:12;;;;;;;;;0.00;0.00;;;;;12.87;81.78;101310.38;4620423;28;2728438;-74
2022/10/02 03:51:38;;;;;;;;;1.00;1.00;;;;;12.90;82.20;101312.22;4627246;28;2725365;-74
2022/10/02 03:54:14;;;;;;;;;2.00;1.00;;;;;12.86;82.62;101307.69;4624136;28;2722150;-74
2022/10/02 03:57:07;;;;;;;;;1.50;1.50;;;;;12.82;82.07;101304.09;4621664;28;2737777;-74
2022/10/02 04:00:12;;;;;;;;;1.00;1.00;;;;;12.88;81.91;101322.63;4595581;28;2723259;-74
2022/10/02 04:02:49;;;;;;;;;1.00;1.00;;;;;12.86;82.02;101326.06;4600899;28;2722200;-75
2022/10/02 04:05:37;;;;;;;;;2.50;2.00;;;;;12.87;82.82;101333.06;4597454;28;2744042;-73
2022/10/02 04:08:13;;;;;;;;;1.00;1.00;;;;;12.82;82.86;101326.81;4598446;28;2720110;-72
2022/10/02 04:10:55;;;;;;;;;1.00;1.00;;;;;12.58;82.49;101309.41;4600800;28;2725307;-68
2022/10/02 04:13:28;;;;;;;;;1.00;1.00;;;;;12.58;82.25;101317.25;4594715;28;2725290;-68
2022/10/02 04:16:07;;;;;;;;;1.00;1.00;;;;;12.52;81.71;101309.19;4601375;28;2714881;-68
2022/10/02 04:18:48;;;;;;;;;0.00;0.00;;;;;12.57;82.00;101314.59;4600611;28;2725270;-68
2022/10/02 04:21:38;;;;;;;;;0.00;0.00;;;;;12.65;82.24;101327.13;4589926;28;2725289;-74
2022/10/02 04:24:20;;;;;;;;;2.00;0.50;;;;;12.62;82.92;101307.78;4597402;28;2724255;-68
2022/10/02 04:27:04;;;;;;;;;1.00;0.00;;;;;12.59;82.22;101313.78;4600673;28;2727381;-74
2022/10/02 04:29:46;;;;;;;;;0.00;0.00;;;;;12.61;82.04;101314.72;4599808;28;2724303;-70
2022/10/02 04:32:21;;;;;;;;;1.50;1.00;;;;;12.67;81.81;101316.66;4597423;28;2725730;-73
2022/10/02 04:34:47;;;;;;;;;0.00;0.00;;;;;12.64;81.51;101311.34;4595073;28;2724253;-75
2022/10/02 04:37:21;;;;;;;;;1.00;1.00;;;;;12.68;81.62;101319.34;4607533;28;2725286;-68
2022/10/02 04:39:56;;;;;;;;;1.00;1.00;;;;;12.67;81.36;101324.53;4618459;28;2725647;-75
2022/10/02 04:42:47;;;;;;;;;1.00;1.00;;;;;12.66;81.61;101326.28;4599599;28;2725337;-72
2022/10/02 04:45:41;;;;;;;;;1.00;1.00;;;;;12.65;81.30;101324.50;4595742;28;2728451;-74
2022/10/02 04:48:12;;;;;;;;;1.00;1.00;;;;;12.65;81.45;101318.34;4598790;28;2723246;-75
2022/10/02 04:50:53;;;;;;;;;1.00;1.00;;;;;12.64;81.71;101319.22;4598842;28;2725294;-74
2022/10/02 04:53:22;;;;;;;;;1.00;1.00;;;;;12.65;81.76;101326.22;4596757;28;2720105;-74
2022/10/02 04:56:04;;;;;;;;;2.00;2.00;;;;;12.60;82.56;101319.94;4593778;28;2731886;-75
2022/10/02 04:58:48;;;;;;;;;1.00;1.00;;;;;12.64;82.57;101325.34;4596666;28;2724630;-71
2022/10/02 05:01:49;;;;;;;;;3.00;3.00;;;;;12.51;82.96;101310.03;4595582;28;2741971;-74
2022/10/02 05:04:50;;;;;;;;;1.00;1.00;;;;;12.56;82.82;101325.94;4597069;28;2722177;-74
2022/10/02 05:07:40;;;;;;;;;1.00;1.00;;;;;12.39;82.58;101323.59;4595473;28;2733619;-74
2022/10/02 05:10:36;;;;;;;;;0.00;0.00;;;;;12.43;83.29;101330.72;4622082;28;2733662;-74
2022/10/02 05:13:31;;;;;;;;;0.00;0.00;;;;;12.39;82.63;101323.59;4597698;28;2722198;-72
2022/10/02 05:16:31;;;;;;;;;3.00;2.50;;;;;12.41;82.59;101321.91;4623547;28;2737845;-68
2022/10/02 05:19:17;;;;;;;;;1.00;1.00;;;;;12.49;82.61;101323.09;4597278;28;2729513;-72
2022/10/02 05:21:45;;;;;;;;;3.00;3.00;;;;;12.55;82.73;101338.13;4594842;28;2736809;-68
2022/10/02 05:24:20;;;;;;;;;6.00;5.00;;;;;12.55;82.29;101343.34;4596606;28;2745101;-73
2022/10/02 05:27:04;;;;;;;;;2.00;2.00;;;;;12.55;81.51;101338.13;4595750;28;2737829;-70
2022/10/02 05:29:52;;;;;;;;;1.00;1.00;;;;;12.53;82.17;101338.09;4592594;28;2726792;-69
2022/10/02 05:32:20;;;;;;;;;3.00;3.00;;;;;12.53;82.58;101339.78;4593558;28;2733658;-74
2022/10/02 05:35:00;;;;;;;;;2.00;2.00;;;;;12.48;82.44;101342.25;4595668;28;2733655;-74
2022/10/02 05:37:53;;;;;;;;;3.00;2.00;;;;;12.38;82.75;101329.69;4597181;28;2740950;-72
2022/10/02 05:40:29;;;;;;;;;4.00;4.00;;;;;12.36;83.38;101328.75;4593905;28;2747215;-74
2022/10/02 05:43:10;;;;;;;;;3.50;3.00;;;;;12.33;82.82;101334.78;4617483;28;2743026;-73
2022/10/02 05:45:57;;;;;;;;;2.00;2.00;;;;;12.34;82.53;101349.63;4594547;28;2741968;-74
2022/10/02 05:48:28;;;;;;;;;3.00;2.00;;;;;12.27;82.84;101351.97;4621710;28;2748262;-68
2022/10/02 05:51:17;;;;;;;;;2.00;2.00;;;;;12.22;82.45;101325.63;4594540;28;2739892;-73
2022/10/02 05:53:51;;;;;;;;;2.50;2.50;;;;;12.19;82.30;101312.41;4593691;28;2746153;-68
2022/10/02 05:56:31;;;;;;;;;2.50;2.00;;;;;12.24;82.38;101321.34;4595908;28;2751319;-68
2022/10/02 05:59:08;;;;;;;;;4.00;2.50;;;;;12.34;83.54;101338.28;4592872;28;2732618;-69
2022/10/02 06:01:41;;;;;;;;;2.50;2.00;;;;;12.26;83.95;101331.88;4593295;28;2746166;-68
2022/10/02 06:04:32;;;;;;;;;3.00;1.00;;;;;12.29;83.52;101345.06;4595041;28;2733624;-67
2022/10/02 06:07:16;;;;;;;;;2.00;2.00;;;;;12.17;83.84;101328.91;4593546;28;2747192;-67
2022/10/02 06:09:46;;;;;;;;;3.00;2.00;;;;;12.28;84.14;101344.19;4595510;28;2746135;-69
2022/10/02 06:12:14;;;;;;;;;3.50;3.00;;;;;12.31;84.43;101346.94;4591988;28;2749239;-72
2022/10/02 06:15:03;;;;;;;;;8.60;6.00;;;;;12.36;84.84;101361.91;4613463;28;2739821;-75
2022/10/02 06:17:39;;;;;;;;;11.33;10.67;;;;;12.39;84.98;101365.50;4613897;28;2794190;-73
2022/10/02 06:20:29;;;;;;;;;8.67;8.00;;;;;12.35;85.65;101363.63;4612595;28;3462781;-74
2022/10/02 06:23:05;;;;;;;;;3.00;3.00;;;;;12.24;84.83;101336.16;4615440;28;2737812;-74
2022/10/02 06:26:03;;;;;;;;;2.00;2.00;;;;;12.46;83.75;101372.75;4593943;28;2730521;-74
2022/10/02 06:28:42;;;;;;;;;3.00;3.00;;;;;12.36;83.96;101344.47;4593029;28;2753461;-73
2022/10/02 06:31:14;;;;;;;;;2.00;2.00;;;;;12.54;83.99;101370.41;4593582;28;2733663;-74
2022/10/02 06:33:40;;;;;;;;;2.50;2.50;;;;;12.45;84.08;101342.13;4593120;28;2753893;-71
2022/10/02 06:36:16;;;;;;;;;3.00;3.00;;;;;12.63;83.79;101372.47;4593375;28;2737793;-68
2022/10/02 06:39:14;;;;;;;;;1.50;1.00;;;;;12.54;82.72;101352.97;4620655;28;2730493;-74
2022/10/02 06:42:21;;;;;;;;;4.50;4.00;;;;;12.71;82.42;101371.91;4595444;28;2750325;-72
2022/10/02 06:45:05;;;;;;;;;5.00;4.00;;;;;12.76;82.30;101363.31;4594188;28;2752392;-71
2022/10/02 06:47:42;;;;;;;;;3.00;2.00;;;;;12.80;82.13;101370.44;4596701;28;2725322;-70
2022/10/02 06:50:14;;;;;;;;;1.50;1.50;;;;;12.82;82.58;101361.78;4596658;28;2733631;-74
2022/10/02 06:53:11;;;;;;;;;3.00;3.00;;;;;12.85;82.47;101372.38;4580103;28;2750308;-75
2022/10/02 06:55:49;;;;;;;;;3.00;3.00;;;;;12.93;82.39;101372.59;4595360;28;2745113;-73
2022/10/02 06:58:35;;;;;;;;;5.00;5.00;;;;;12.96;82.20;101364.84;4596236;28;2744365;-75
2022/10/02 07:01:21;;;;;;;;;5.60;5.00;;;;;12.91;81.95;101355.94;4613765;28;2733614;-70
2022/10/02 07:04:11;;;;;;;;;9.00;6.00;;;;;13.04;81.99;101363.38;4616144;28;2734696;-70
2022/10/02 07:06:59;;;;;;;;;5.00;5.00;;;;;13.11;82.29;101365.38;4593341;28;2746188;-71
2022/10/02 07:09:57;;;;;;;;;9.00;7.00;;;;;13.08;82.16;101346.91;4593687;28;2749327;-69
2022/10/02 07:12:54;;;;;;;;;4.60;4.60;;;;;13.33;81.74;101353.88;4611587;28;2742993;-72
2022/10/02 07:15:29;;;;;;;;;6.00;5.00;;;;;13.74;81.13;101348.09;4592541;28;2739889;-69
2022/10/02 07:18:04;;;;;;;;;7.43;6.00;;;;;16.26;75.41;101345.59;4628771;28;1786816;-75
2022/10/02 07:20:46;;;;;;;;;8.00;6.80;;;;;19.84;64.47;101314.66;4635503;28;2731579;-69
2022/10/02 07:23:16;;;;;;;;;7.00;6.60;;;;;22.40;58.65;101329.53;4633047;28;2737068;-74
2022/10/02 07:26:15;;;;;;;;;12.00;11.00;;;;;24.02;47.43;101322.66;4588878;28;3511666;-73
2022/10/02 07:28:49;;;;;;;;;8.00;8.00;;;;;25.39;45.46;101323.19;4619413;28;2746111;-70
2022/10/02 07:31:49;;;;;;;;;4.40;3.80;;;;;26.15;42.23;101315.38;4617300;28;2747160;-68
2022/10/02 07:34:43;;;;;;;;;16.00;15.00;;;;;27.08;40.27;101303.31;4588146;28;2821162;-69
2022/10/02 07:38:00;;;;;;;;;7.80;7.80;;;;;28.06;39.06;101288.03;4614319;28;2757571;-70
2022/10/02 07:40:59;;;;;;;;;3.00;3.00;;;;;29.23;40.03;101294.97;4614447;28;2736779;-68
2022/10/02 07:43:52;;;;;;;;;3.00;3.00;;;;;30.16;38.31;101292.34;4614444;28;2741953;-68
2022/10/02 07:46:34;;;;;;;;;2.00;2.00;;;;;30.78;36.83;101285.31;4614037;28;2741975;-68
2022/10/02 07:49:26;;;;;;;;;3.00;3.00;;;;;31.59;34.75;101289.84;4613375;28;2739129;-71
2022/10/02 07:52:05;;;;;;;;;2.00;2.00;;;;;32.14;33.90;101272.03;4637078;28;2741953;-69
2022/10/02 07:55:00;;;;;;;;;1.20;1.00;;;;;32.89;33.07;101282.66;4614164;28;2729397;-75
2022/10/02 07:57:48;;;;;;;;;2.80;1.20;;;;;33.51;32.47;101270.41;4637726;28;2739880;-68
2022/10/02 08:00:18;;;;;;;;;2.00;2.00;;;;;34.05;32.17;101274.59;4619621;28;2746114;-68
2022/10/02 08:03:07;;;;;;;;;3.20;3.20;;;;;34.56;29.88;101282.53;4612197;28;2744067;-75
2022/10/02 08:05:43;;;;;;;;;3.40;3.40;;;;;34.62;29.15;101259.56;4614285;28;2728407;-72
2022/10/02 08:08:18;;;;;;;;;2.00;2.00;;;;;34.89;29.37;101272.50;4615228;28;2739896;-73
2022/10/02 08:10:52;;;;;;;;;2.00;2.00;;;;;35.09;29.25;101279.41;4613546;28;2742306;-75
2022/10/02 08:13:27;;;;;;;;;1.80;1.80;;;;;35.44;28.69;101278.13;4614467;28;2739853;-69
2022/10/02 08:15:55;;;;;;;;;0.80;0.80;;;;;35.97;28.62;101266.63;4614738;28;2724268;-71
2022/10/02 08:18:43;;;;;;;;;2.00;1.60;;;;;36.19;28.05;101261.56;4635293;28;2738178;-69
2022/10/02 08:21:15;;;;;;;;;1.00;1.00;;;;;36.10;28.63;101256.69;4613339;28;2724279;-71
2022/10/02 08:24:05;;;;;;;;;1.00;1.00;;;;;36.34;29.23;101262.34;4635683;28;2725270;-73
2022/10/02 08:26:38;;;;;;;;;3.00;2.80;;;;;36.56;27.22;101266.34;4637430;28;2750254;-70
2022/10/02 08:29:17;;;;;;;;;1.00;1.00;;;;;36.54;28.25;101269.16;4639764;28;2737857;-75
2022/10/02 08:31:45;;;;;;;;;1.20;1.20;;;;;36.61;28.51;101256.03;4612720;28;2731492;-75
2022/10/02 08:34:21;;;;;;;;;2.00;1.40;;;;;36.88;28.14;101257.84;4613297;28;2733975;-79
2022/10/02 08:37:29;;;;;;;;;0.60;0.60;;;;;36.92;28.23;101254.78;4615969;28;2724225;-79
2022/10/02 08:40:27;;;;;;;;;1.20;0.80;;;;;37.06;28.30;101256.53;4620408;28;2725239;-78
2022/10/02 08:43:26;;;;;;;;;1.00;1.00;;;;;37.31;27.55;101249.41;4639532;28;2728414;-78
2022/10/02 08:46:13;;;;;;;;;1.20;1.20;;;;;37.29;27.39;101243.19;4637725;28;2721072;-78
2022/10/02 08:49:18;;;;;;;;;1.20;1.20;;;;;37.05;28.05;101223.97;4638801;28;2735667;-75
2022/10/02 08:52:10;;;;;;;;;1.20;1.20;;;;;37.45;27.57;101248.41;4614102;28;2733595;-77
2022/10/02 08:54:59;;;;;;;;;0.40;0.40;;;;;37.30;27.35;101248.50;4622950;28;2724244;-75
2022/10/02 08:58:04;;;;;;;;;1.00;1.00;;;;;37.22;27.90;101250.91;4636470;28;2735663;-78
2022/10/02 09:00:50;;;;;;;;;1.00;1.00;;;;;37.14;28.33;101245.13;4638376;28;2725279;-77
2022/10/02 09:03:53;;;;;;;;;2.00;2.00;;;;;36.93;29.61;101251.09;4639067;28;2734620;-78
2022/10/02 09:06:53;;;;;;;;;0.20;0.20;;;;;36.41;29.20;101258.25;4601684;28;2722157;-75
2022/10/02 09:09:44;;;;;;;;;3.40;2.80;;;;;35.71;31.11;101257.44;4639061;28;2731492;-74
2022/10/02 09:12:38;;;;;;;;;5.67;4.67;;;;;35.30;31.22;101261.81;4620621;28;2719049;-76
2022/10/02 09:15:54;;;;;;;;;2.00;2.00;;;;;34.64;31.55;101230.53;4639111;28;2728384;-77
2022/10/02 09:18:42;;;;;;;;;1.00;1.00;;;;;34.70;33.08;101262.75;4570160;28;2727381;-76
2022/10/02 09:21:46;;;;;;;;;1.00;1.00;;;;;34.21;32.50;101244.78;4638011;28;2726331;-78
2022/10/02 09:24:55;;;;;;;;;1.00;1.00;;;;;34.08;33.52;101255.47;4614377;28;2735667;-76
2022/10/02 09:28:03;;;;;;;;;0.00;0.00;;;;;34.01;32.70;101258.59;4639481;28;2730836;-78
2022/10/02 09:30:46;;;;;;;;;8.00;8.00;;;;;33.42;34.28;101244.69;4615542;28;2748190;-74
2022/10/02 09:33:58;;;;;;;;;4.20;4.20;;;;;33.25;34.71;101254.63;4635681;28;2737854;-71
2022/10/02 09:36:56;;;;;;;;;0.80;0.80;;;;;33.08;35.43;101247.34;4610966;28;2720416;-70
2022/10/02 09:39:56;;;;;;;;;1.80;1.80;;;;;32.72;36.07;101250.19;4632419;28;2741980;-74
2022/10/02 09:42:45;;;;;;;;;1.60;1.20;;;;;33.01;36.01;101248.66;4554709;28;2729512;-71
2022/10/02 09:45:47;;;;;;;;;1.00;1.00;;;;;33.11;35.60;101254.50;4661660;28;2727357;-73
2022/10/02 09:48:41;;;;;;;;;2.00;2.00;;;;;33.21;36.02;101266.56;4634300;28;2736701;-69
2022/10/02 09:51:21;;;;;;;;;1.00;0.80;;;;;33.35;35.44;101267.69;4610741;28;2720093;-73
2022/10/02 09:53:51;;;;;;;;;0.80;0.80;;;;;33.53;35.10;101268.50;4612204;27;2727420;-76
2022/10/02 09:56:33;;;;;;;;;2.00;2.00;;;;;33.55;34.64;101270.16;4664261;27;2727364;-69
2022/10/02 09:59:30;;;;;;;;;0.00;0.00;;;;;33.21;34.95;101263.00;4648966;28;2725278;-70
2022/10/02 10:02:30;;;;;;;;;2.00;2.00;;;;;33.21;35.56;101276.53;4651728;28;2735687;-70
2022/10/02 10:05:37;;;;;;;;;3.00;3.00;;;;;33.15;35.05;101276.84;4649500;28;2737070;-71
2022/10/02 10:08:36;;;;;;;;;1.40;1.00;;;;;32.72;35.04;101261.00;4631484;28;2741971;-69
2022/10/02 10:11:22;;;;;;;;;5.33;4.00;;;;;32.59;35.67;101271.59;4589079;28;2739865;-69
2022/10/02 10:14:11;;;;;;;;;1.60;1.20;;;;;32.59;36.26;101281.50;4651821;28;2736051;-68
2022/10/02 10:17:04;;;;;;;;;1.00;1.00;;;;;32.41;36.57;101284.19;4628971;28;2716973;-69
2022/10/02 10:19:49;;;;;;;;;2.00;2.00;;;;;32.45;36.52;101276.75;4651892;28;2746115;-69
2022/10/02 10:22:56;;;;;;;;;0.80;0.80;;;;;32.25;36.63;101280.47;4628974;28;2725267;-68
2022/10/02 10:26:15;;;;;;;;;0.00;0.00;;;;;32.08;36.96;101286.72;4653197;28;2713152;-68
2022/10/02 10:29:07;;;;;;;;;0.20;0.20;;;;;31.80;37.05;101279.88;4597508;28;2723229;-68
2022/10/02 10:31:50;;;;;;;;;1.80;1.80;;;;;31.39;38.61;101285.34;4652655;28;2750365;-68
2022/10/02 10:34:38;;;;;;;;;4.40;3.80;;;;;31.01;38.94;101296.03;4630618;28;2744454;-68
2022/10/02 10:40:34;;;;;;;;;1.00;1.00;;;;;30.60;39.28;101295.06;4651791;28;2722188;-68
2022/10/02 10:43:31;;;;;;;;;4.00;4.00;;;;;29.84;40.13;101270.25;4635812;28;2735737;-68
2022/10/02 10:46:16;;;;;;;;;0.40;0.40;;;;;30.01;40.75;101305.50;4639464;28;2725287;-70
2022/10/02 10:49:13;;;;;;;;;1.00;1.00;;;;;30.24;40.86;101293.81;4654663;28;2722507;-68
2022/10/02 10:52:06;;;;;;;;;1.80;1.80;;;;;30.07;40.89;101299.00;4652471;28;2722224;-68
2022/10/02 10:54:54;;;;;;;;;0.80;0.80;;;;;29.72;41.83;101295.84;4652723;28;2726320;-68
2022/10/02 10:57:33;;;;;;;;;1.00;0.80;;;;;29.94;41.04;101304.88;4650402;28;2721159;-69
2022/10/02 11:00:21;;;;;;;;;0.60;0.60;;;;;29.85;41.19;101305.22;4654105;28;2727398;-68
2022/10/02 11:03:34;;;;;;;;;1.00;1.00;;;;;29.86;41.18;101303.38;4652138;28;2724201;-77
2022/10/02 11:06:42;;;;;;;;;1.20;0.80;;;;;29.59;42.03;101305.31;4643695;28;2725278;-76
2022/10/02 11:09:29;;;;;;;;;1.00;1.00;;;;;29.37;41.57;101313.25;4648513;28;2726377;-77
2022/10/02 11:12:27;;;;;;;;;1.00;1.00;;;;;29.38;42.35;101313.22;4653938;28;2735687;-76
2022/10/02 11:15:19;;;;;;;;;2.60;2.00;;;;;29.48;42.88;101305.69;4655427;28;2746154;-77
2022/10/02 11:18:17;;;;;;;;;0.60;0.60;;;;;29.62;42.87;101286.31;4619524;28;2725266;-77
2022/10/02 11:21:16;;;;;;;;;1.40;1.40;;;;;29.79;42.75;101316.22;4655599;28;2737742;-77
2022/10/02 11:24:15;;;;;;;;;2.60;2.00;;;;;29.96;42.72;101317.38;4642367;28;2739840;-76
2022/10/02 11:27:03;;;;;;;;;0.40;0.40;;;;;30.21;41.38;101317.31;4646878;27;2728423;-77
2022/10/02 11:30:03;;;;;;;;;2.00;1.40;;;;;30.20;41.81;101293.97;4641133;28;2728384;-76
2022/10/02 11:32:34;;;;;;;;;2.00;2.00;;;;;30.03;42.17;101313.53;4654468;28;2736716;-77
2022/10/02 11:35:13;;;;;;;;;1.40;1.00;;;;;29.86;42.54;101314.16;4629075;28;2735757;-77
2022/10/02 11:37:49;;;;;;;;;1.00;1.00;;;;;29.62;43.13;101313.25;4655801;28;2720109;-77
2022/10/02 11:40:20;;;;;;;;;1.60;1.60;;;;;29.36;43.75;101323.16;4654412;28;2741931;-76
2022/10/02 11:43:01;;;;;;;;;1.60;1.60;;;;;29.33;43.03;101296.38;4667057;27;2742004;-77
2022/10/02 11:46:10;;;;;;;;;1.60;1.60;;;;;29.48;43.57;101314.63;4632211;28;2741964;-77
2022/10/02 11:48:56;;;;;;;;;3.00;2.40;;;;;29.58;43.29;101312.47;4647592;28;2731496;-76
2022/10/02 11:51:56;;;;;;;;;2.00;2.00;;;;;29.71;42.96;101308.44;4654887;28;2741935;-77
2022/10/02 11:54:53;;;;;;;;;2.60;2.00;;;;;29.70;43.51;101305.75;4624480;28;2742966;-77
2022/10/02 11:57:38;;;;;;;;;2.00;2.00;;;;;29.28;43.53;101272.31;4624915;28;2741936;-77
2022/10/02 12:00:15;;;;;;;;;2.80;2.00;;;;;29.39;43.72;101297.97;4631035;28;2725226;-77
2022/10/02 12:03:00;;;;;;;;;3.00;2.00;;;;;29.25;43.74;101298.47;4653832;28;2740913;-76
2022/10/02 12:05:54;;;;;;;;;4.60;3.20;;;;;28.65;44.33;101293.31;4631453;28;2749208;-77
2022/10/02 12:08:33;;;;;;;;;4.00;3.00;;;;;28.63;44.85;101275.47;4629303;28;2740266;-76
2022/10/02 12:11:20;;;;;;;;;1.80;1.80;;;;;28.71;44.70;101286.84;4631742;28;2729417;-77
2022/10/02 12:14:18;;;;;;;;;2.60;2.60;;;;;28.84;44.77;101290.88;4668459;27;2733571;-77
2022/10/02 12:17:09;;;;;;;;;3.40;2.60;;;;;28.88;44.78;101294.34;4634947;28;2750272;-77
2022/10/02 12:29:43;;;;;;;;;2.20;2.20;;;;;29.19;43.75;101279.81;4634484;28;2728407;-77
2022/10/02 12:32:13;;;;;;;;;6.20;3.40;;;;;29.23;43.89;101285.06;4655797;28;2754469;-77
2022/10/02 12:35:02;;;;;;;;;3.00;3.00;;;;;29.40;43.96;101291.63;4646451;27;2744075;-77
2022/10/02 12:37:49;;;;;;;;;2.00;2.00;;;;;29.22;43.75;101274.34;4649548;27;2746070;-77